createdAt,value
2019-05-17T00:05:18.112Z,9.80
2019-05-17T00:07:54.039Z,10.80
2019-05-17T00:13:26.705Z,9.80
2019-05-17T00:15:58.834Z,9.40
2019-05-17T00:18:30.830Z,9.80
2019-05-17T00:21:18.367Z,9.80
2019-05-17T00:23:53.504Z,9.80
2019-05-17T00:26:28.315Z,9.80
2019-05-17T00:29:48.395Z,9.80
2019-05-17T00:32:27.432Z,9.80
2019-05-17T00:34:59.620Z,9.80
2019-05-17T00:37:31.849Z,9.80
2019-05-17T00:43:09.838Z,9.80
2019-05-17T00:45:43.923Z,9.80
2019-05-17T00:48:17.230Z,9.80
2019-05-17T00:50:54.098Z,9.80
2019-05-17T00:53:26.764Z,8.80
2019-05-17T00:58:50.614Z,9.90
2019-05-17T01:01:42.750Z,9.90
2019-05-17T01:04:17.317Z,9.90
2019-05-17T01:07:02.798Z,9.90
2019-05-17T01:09:47.248Z,10.80
2019-05-17T01:13:11.735Z,10.70
2019-05-17T01:15:47.354Z,9.90
2019-05-17T01:18:17.403Z,9.80
2019-05-17T01:20:56.781Z,9.90
2019-05-17T01:23:27.137Z,9.90
2019-05-17T01:26:08.215Z,9.90
2019-05-17T01:28:43.823Z,10.10
2019-05-17T01:31:37.500Z,10.00
2019-05-17T01:34:16.625Z,9.70
2019-05-17T01:36:42.124Z,10.00
2019-05-17T01:42:19.308Z,10.90
2019-05-17T01:44:50.125Z,9.90
2019-05-17T01:50:19.474Z,10.10
2019-05-17T01:52:57.485Z,9.90
2019-05-17T01:58:57.544Z,10.10
2019-05-17T02:01:37.023Z,11.10
2019-05-17T02:04:13.825Z,10.10
2019-05-17T02:06:48.282Z,10.10
2019-05-17T02:09:34.857Z,10.10
2019-05-17T02:11:54.414Z,10.10
2019-05-17T02:14:28.108Z,10.10
2019-05-17T02:17:20.378Z,9.70
2019-05-17T02:19:53.259Z,10.10
2019-05-17T02:22:36.820Z,10.10
2019-05-17T02:25:08.729Z,10.10
2019-05-17T02:28:12.276Z,10.10
2019-05-17T02:33:55.316Z,10.10
2019-05-17T02:37:03.891Z,10.60
2019-05-17T02:40:07.807Z,10.20
2019-05-17T02:42:54.903Z,10.20
2019-05-17T02:45:32.844Z,10.20
2019-05-17T02:48:08.775Z,10.10
2019-05-17T02:50:39.524Z,10.10
2019-05-17T02:53:33.382Z,10.20
2019-05-17T02:57:14.544Z,10.50
2019-05-17T02:59:13.145Z,10.20
2019-05-17T03:01:44.185Z,10.20
2019-05-17T03:04:17.004Z,10.20
2019-05-17T03:06:53.489Z,10.20
2019-05-17T03:12:27.330Z,10.10
2019-05-17T03:15:03.764Z,10.10
2019-05-17T03:17:53.718Z,10.10
2019-05-17T03:23:34.510Z,10.20
2019-05-17T03:26:12.762Z,10.20
2019-05-17T03:29:14.181Z,10.60
2019-05-17T03:32:09.758Z,10.20
2019-05-17T03:35:06.707Z,10.20
2019-05-17T03:37:38.017Z,10.30
2019-05-17T03:40:30.642Z,10.30
2019-05-17T03:50:13.108Z,11.40
2019-05-17T03:53:53.148Z,10.50
2019-05-17T03:57:16.270Z,10.50
2019-05-17T04:00:23.422Z,10.40
2019-05-17T04:03:07.112Z,10.50
2019-05-17T04:05:43.525Z,10.50
2019-05-17T04:12:13.559Z,10.50
2019-05-17T04:25:34.019Z,10.60
2019-05-17T04:28:03.414Z,10.60
2019-05-17T04:30:48.496Z,10.70
2019-05-17T04:40:43.213Z,10.70
2019-05-17T04:43:47.908Z,10.70
2019-05-17T04:52:45.099Z,10.80
2019-05-17T04:55:34.533Z,10.90
2019-05-17T04:58:13.957Z,10.90
2019-05-17T05:01:13.237Z,10.90
2019-05-17T05:04:08.833Z,11.00
2019-05-17T05:06:38.402Z,11.00
2019-05-17T05:09:16.616Z,11.20
2019-05-17T05:12:12.227Z,11.20
2019-05-17T05:14:47.275Z,11.00
2019-05-17T05:17:18.009Z,11.30
2019-05-17T05:19:53.528Z,11.40
2019-05-17T05:22:26.978Z,11.40
2019-05-17T05:25:07.783Z,11.40
2019-05-17T05:27:45.096Z,11.40
2019-05-17T05:30:22.524Z,11.50
2019-05-17T05:32:56.705Z,12.10
2019-05-17T05:35:36.482Z,11.60
2019-05-17T05:38:13.513Z,11.70
2019-05-17T05:40:46.707Z,11.80
2019-05-17T05:46:26.716Z,11.90
2019-05-17T05:49:02.957Z,12.00
2019-05-17T05:51:33.527Z,12.00
2019-05-17T05:54:23.546Z,12.10
2019-05-17T05:57:25.583Z,12.20
2019-05-17T06:00:15.021Z,12.30
2019-05-17T06:02:56.551Z,12.40
2019-05-17T06:08:41.464Z,12.40
2019-05-17T06:11:53.641Z,12.40
2019-05-17T06:20:54.227Z,12.60
2019-05-17T06:24:02.624Z,12.60
2019-05-17T06:26:56.719Z,12.70
2019-05-17T06:29:57.934Z,12.60
2019-05-17T06:32:31.684Z,12.50
2019-05-17T06:38:13.184Z,13.10
2019-05-17T06:43:52.209Z,12.60
2019-05-17T06:46:41.848Z,12.60
2019-05-17T06:49:13.299Z,12.60
2019-05-17T06:52:29.337Z,12.60
2019-05-17T06:58:45.346Z,12.50
2019-05-17T07:01:30.944Z,12.70
2019-05-17T07:04:19.315Z,12.70
2019-05-17T07:07:56.425Z,12.80
2019-05-17T07:10:51.965Z,12.80
2019-05-17T07:13:53.839Z,12.90
2019-05-17T07:16:51.365Z,13.00
2019-05-17T07:19:34.374Z,13.20
2019-05-17T07:22:21.276Z,13.30
2019-05-17T07:29:10.159Z,13.50
2019-05-17T07:31:56.066Z,13.70
2019-05-17T07:38:13.445Z,13.40
2019-05-17T07:41:29.862Z,13.40
2019-05-17T07:44:20.559Z,13.50
2019-05-17T07:47:00.103Z,13.40
2019-05-17T07:49:42.542Z,13.50
2019-05-17T07:52:20.962Z,13.50
2019-05-17T07:55:30.156Z,13.60
2019-05-17T07:58:05.431Z,13.60
2019-05-17T08:01:55.049Z,13.70
2019-05-17T08:07:10.856Z,13.70
2019-05-17T08:13:25.576Z,13.90
2019-05-17T08:16:19.623Z,14.00
2019-05-17T08:19:15.179Z,14.10
2019-05-17T08:24:49.304Z,14.60
2019-05-17T08:27:43.716Z,14.90
2019-05-17T08:30:23.599Z,15.20
2019-05-17T08:33:49.864Z,15.50
2019-05-17T08:40:10.685Z,15.80
2019-05-17T08:43:21.290Z,15.90
2019-05-17T08:45:53.071Z,15.80
2019-05-17T08:49:11.382Z,16.10
2019-05-17T08:55:34.385Z,15.80
2019-05-17T08:58:21.515Z,15.20
2019-05-17T09:01:24.196Z,16.20
2019-05-17T09:11:06.119Z,16.70
2019-05-17T09:17:33.310Z,16.40
2019-05-17T09:20:13.028Z,16.00
2019-05-17T09:22:44.942Z,16.10
2019-05-17T09:25:30.258Z,16.20
2019-05-17T09:31:12.585Z,17.40
2019-05-17T09:33:47.072Z,17.60
2019-05-17T09:43:06.917Z,17.00
2019-05-17T09:52:20.266Z,20.90
2019-05-17T09:55:13.843Z,22.20
2019-05-17T10:01:49.426Z,24.50
2019-05-17T10:04:31.532Z,24.70
2019-05-17T10:14:32.904Z,22.20
2019-05-17T10:20:25.199Z,20.60
2019-05-17T10:26:54.406Z,19.60
2019-05-17T10:30:00.183Z,19.20
2019-05-17T10:36:42.629Z,18.20
2019-05-17T10:40:10.164Z,17.10
2019-05-17T10:43:11.826Z,17.10
2019-05-17T10:45:51.598Z,16.80
2019-05-17T10:48:37.209Z,16.60
2019-05-17T10:54:46.774Z,16.20
2019-05-17T10:58:01.371Z,16.20
2019-05-17T11:00:56.804Z,16.50
2019-05-17T11:07:04.311Z,17.50
2019-05-17T11:10:27.902Z,18.10
2019-05-17T11:13:13.063Z,18.10
2019-05-17T11:31:19.737Z,18.20
2019-05-17T11:34:35.716Z,18.00
2019-05-17T11:37:57.150Z,17.90
2019-05-17T11:41:51.460Z,17.80
2019-05-17T11:45:29.002Z,17.30
2019-05-17T11:48:24.352Z,16.80
2019-05-17T11:51:33.846Z,16.90
2019-05-17T11:55:29.022Z,17.00
2019-05-17T11:58:33.014Z,17.10
2019-05-17T12:01:33.945Z,17.40
2019-05-17T12:17:34.399Z,18.60
2019-05-17T12:27:16.458Z,23.00
2019-05-17T12:30:13.511Z,23.50
2019-05-17T12:33:27.329Z,23.70
2019-05-17T12:36:08.611Z,23.80
2019-05-17T12:39:08.503Z,24.90
2019-05-17T12:42:40.717Z,24.50
2019-05-17T12:45:39.089Z,24.50
2019-05-17T12:48:31.735Z,24.50
2019-05-17T12:51:51.887Z,24.90
2019-05-17T13:03:14.815Z,23.90
2019-05-17T13:05:48.318Z,22.20
2019-05-17T13:12:41.494Z,20.80
2019-05-17T13:16:16.443Z,19.40
2019-05-17T13:19:34.245Z,19.30
2019-05-17T13:40:40.108Z,19.10
2019-05-17T13:44:32.429Z,18.80
2019-05-17T13:51:41.712Z,18.60
2019-05-17T13:58:20.321Z,20.30
2019-05-17T14:01:51.828Z,19.90
2019-05-17T14:04:26.632Z,19.90
2019-05-17T14:13:51.307Z,18.90
2019-05-17T14:23:37.614Z,20.90
2019-05-17T14:26:13.425Z,22.40
2019-05-17T14:32:04.927Z,22.30
2019-05-17T14:38:34.940Z,20.60
2019-05-17T14:41:34.846Z,19.90
2019-05-17T14:44:53.404Z,19.20
2019-05-17T14:47:40.889Z,19.40
2019-05-17T15:02:29.631Z,23.60
2019-05-17T15:25:44.237Z,22.70
2019-05-17T15:35:28.625Z,20.30
2019-05-17T15:46:42.984Z,21.20
2019-05-17T15:53:56.628Z,21.50
2019-05-17T16:01:38.570Z,22.60
2019-05-17T16:05:28.788Z,22.50
2019-05-17T16:09:09.858Z,22.20
2019-05-17T16:26:47.369Z,23.60
2019-05-17T16:41:55.336Z,23.90
2019-05-17T16:44:45.526Z,25.20
2019-05-17T16:48:10.040Z,25.30
2019-05-17T16:51:14.223Z,25.20
2019-05-17T16:53:52.687Z,24.70
2019-05-17T16:57:20.595Z,24.50
2019-05-17T17:03:10.628Z,23.20
2019-05-17T17:09:45.896Z,23.00
2019-05-17T17:12:38.539Z,21.70
2019-05-17T17:18:21.784Z,20.40
2019-05-17T17:21:25.045Z,19.50
2019-05-17T17:27:32.742Z,18.80
2019-05-17T17:30:48.675Z,18.70
2019-05-17T17:34:02.597Z,19.70
2019-05-17T17:40:32.786Z,18.90
2019-05-17T17:47:28.123Z,20.30
2019-05-17T17:50:37.638Z,21.20
2019-05-17T17:56:19.279Z,22.50
2019-05-17T18:03:22.784Z,23.00
2019-05-17T18:10:02.115Z,22.20
2019-05-17T18:19:28.717Z,19.40
2019-05-17T18:26:11.331Z,19.30
2019-05-17T18:29:00.991Z,19.20
2019-05-17T18:35:57.834Z,18.50
2019-05-17T18:39:03.193Z,17.80
2019-05-17T18:45:06.583Z,16.90
2019-05-17T18:51:14.174Z,16.00
2019-05-17T18:53:53.196Z,15.50
2019-05-17T18:57:28.353Z,15.40
2019-05-17T19:00:27.011Z,15.10
2019-05-17T19:06:54.107Z,14.40
2019-05-17T19:10:18.611Z,14.20
2019-05-17T19:16:38.727Z,14.80
2019-05-17T19:19:19.034Z,13.70
2019-05-17T19:21:52.653Z,13.60
2019-05-17T19:24:30.019Z,13.40
2019-05-17T19:27:39.298Z,13.40
2019-05-17T19:30:43.069Z,13.30
2019-05-17T19:40:48.208Z,13.30
2019-05-17T19:58:27.131Z,13.10
2019-05-17T20:16:20.322Z,13.10
2019-05-17T20:19:33.873Z,13.10
2019-05-17T20:26:20.406Z,13.20
2019-05-17T20:29:38.053Z,13.20
2019-05-17T20:32:41.775Z,13.30
2019-05-17T20:38:58.939Z,13.30
2019-05-17T20:44:56.422Z,13.40
2019-05-17T20:48:00.921Z,13.40
2019-05-17T20:50:48.543Z,14.20
2019-05-17T20:53:40.962Z,13.50
2019-05-17T20:56:31.385Z,13.40
2019-05-17T21:02:07.927Z,13.50
2019-05-17T21:17:02.344Z,13.40
2019-05-17T21:19:40.136Z,13.30
2019-05-17T21:22:47.816Z,13.30
2019-05-17T21:25:23.580Z,13.40
2019-05-17T21:28:18.715Z,13.30
2019-05-17T21:30:55.063Z,13.30
2019-05-17T21:33:35.572Z,13.20
2019-05-17T21:36:15.058Z,13.10
2019-05-17T21:39:02.727Z,13.00
2019-05-17T21:44:44.278Z,13.00
2019-05-17T21:50:44.906Z,13.00
2019-05-17T21:56:42.924Z,12.80
2019-05-17T21:59:19.262Z,13.30
2019-05-17T22:05:36.551Z,13.00
2019-05-17T22:14:12.275Z,13.10
2019-05-17T22:16:47.922Z,13.10
2019-05-17T22:19:42.360Z,13.10
2019-05-17T22:22:21.375Z,13.10
2019-05-17T22:24:58.597Z,12.90
2019-05-17T22:28:27.389Z,12.90
2019-05-17T22:31:16.578Z,12.90
2019-05-17T22:34:00.184Z,12.80
2019-05-17T22:36:44.489Z,12.80
2019-05-17T22:39:19.626Z,12.80
2019-05-17T22:41:56.904Z,12.80
2019-05-17T22:47:21.379Z,12.70
2019-05-17T22:53:18.273Z,12.60
2019-05-17T22:56:35.412Z,12.60
2019-05-17T22:59:19.805Z,12.60
2019-05-17T23:02:29.196Z,12.60
2019-05-17T23:05:30.618Z,12.50
2019-05-17T23:11:50.921Z,12.50
2019-05-17T23:14:42.824Z,12.40
2019-05-17T23:17:19.157Z,12.40
2019-05-17T23:20:05.020Z,12.30
2019-05-17T23:22:48.137Z,12.20
2019-05-17T23:25:39.818Z,11.50
2019-05-17T23:32:01.558Z,12.20
2019-05-17T23:35:06.530Z,12.30
2019-05-17T23:37:44.942Z,12.20
2019-05-17T23:40:26.449Z,12.20
2019-05-17T23:43:12.342Z,12.10
2019-05-17T23:46:03.966Z,12.20
2019-05-17T23:51:53.134Z,12.20
2019-05-17T23:57:30.686Z,12.10
